CheckWX is a tool to help pilots better visualize weather data.  It is not intended as a substitute for an official pre-flight weather briefing.

09:34:13 UTC

CYDQ METAR
Dawson Creek Airport
Dawson Creek, Canada
Current

12 mins ago

CYDQ 200922Z AUTO 33010KT 9SM SCT016 BKN048 BKN075 M04/M07 A2976 RMK SLP113
Observed
Feb-20 @ 09:22 UTC
Wind
  • 330° at 10 KTS
Visibility
14,484 meters
Flight Rules
VFR
Cloud Levels
  • Scattered at 1,600' AGL
  • Broken at 4,800' AGL
  • Broken at 7,500' AGL
Temperature
-4°C / 25°F
Dewpoint
-7°C / 19°F
Humidity
80%
Altimeter
29.76" Hg
Pressure
1011.3 hPa
Previous

24 mins ago

CYDQ 200910Z AUTO 34006KT 8SM -SN SCT016 SCT020 BKN025 BKN048 M04/M06 A2975 RMK SLP111
Observed
Feb-20 @ 09:10 UTC
Wind
  • 340° at 6 KTS
Visibility
12,875 meters
Flight Rules
MVFR
Conditions
Light Snow
Cloud Levels
  • Scattered at 1,600' AGL
  • Scattered at 2,000' AGL
  • Broken at 2,500' AGL
  • Broken at 4,800' AGL
Temperature
-4°C / 25°F
Dewpoint
-6°C / 21°F
Humidity
86%
Altimeter
29.75" Hg
Pressure
1011.1 hPa
Previous

47 mins ago

CYDQ 200847Z AUTO 31007KT 5SM -SN BKN016 BKN037 M04/M06 A2974 RMK SLP107
Observed
Feb-20 @ 08:47 UTC
Wind
  • 310° at 7 KTS
Visibility
8,047 meters
Flight Rules
MVFR
Conditions
Light Snow
Cloud Levels
  • Broken at 1,600' AGL
  • Broken at 3,700' AGL
Temperature
-4°C / 25°F
Dewpoint
-6°C / 21°F
Humidity
86%
Altimeter
29.74" Hg
Pressure
1010.7 hPa